East Charleston, Pennsylvania
Current Conditions -  °F | °C
As of 9:55 AM on Wednesday 22 Oct 2014 (Local Time) from KN38 Reporting Station
Haze Haze  
Wind Chill: 38°   Ceiling: 400
Heat Index: 45°   Visibility: 6mi
Dew Point: 43°   Wind: 14mph
Humidity: 93%   Direction: 350°N
Pressure: 30.09"   Gusts: 22mph
Location:  41.8345°N, 77.0538°W
Report Text: KN38 221355Z AUTO 35012G19KT 6SM BR OVC004 07/06 A3009 RMK AO2
Loading
Personal Weather Stations






























Interactive Weather Map
Tropical Storm Tracking
New forecast layout! Learn more

10-Day Weather Forecast

Advertisements
Track Severe Weather on mobile